Time;durP1;ratioP1;P1;durP2;ratioP2;P2;SDS_P1;SDS_P2;PMS_P1;PMS_P2;Temp;Humidity;BMP_temperature;BMP_pressure;BME280_temperature;BME280_humidity;BME280_pressure;Samples;Min_cycle;Max_cycle;Signal;HPM_P1;HPM_P2
2022/04/17 00:00:04;;;;;;;;;;;;;;;11.76;32.33;100813.09;4400870;32;20032;-80
2022/04/17 00:02:34;;;;;;;;;;;;;;;12.22;31.75;100815.22;4399968;32;20496;-79
2022/04/17 00:05:01;;;;;;;;;;;;;;;12.22;31.85;100809.09;4399354;32;19978;-79
2022/04/17 00:07:29;;;;;;;;;;;;;;;12.02;31.64;100801.69;4405704;32;20069;-79
2022/04/17 00:09:56;;;;;;;;;;;;;;;12.13;31.95;100798.53;4400123;32;19982;-78
2022/04/17 00:12:23;;;;;;;;;;;;;;;11.73;32.51;100798.31;4404760;32;19990;-79
2022/04/17 00:14:50;;;;;;;;;;;;;;;12.18;31.63;100796.91;4400239;32;19982;-79
2022/04/17 00:17:17;;;;;;;;;;;;;;;12.16;31.90;100799.47;4400690;32;19994;-79
2022/04/17 00:19:45;;;;;;;;;;;;;;;11.91;31.08;100797.97;4400645;32;19994;-78
2022/04/17 00:22:15;;;;;;;;;;;;;;;11.95;30.67;100799.78;4400098;32;19986;-79
2022/04/17 00:24:42;;;;;;;;;;;;;;;12.16;28.74;100793.41;4408909;32;19992;-79
2022/04/17 00:27:10;;;;;;;;;;;;;;;12.04;28.60;100794.84;4412346;32;20019;-79
2022/04/17 00:29:36;;;;;;;;;;;;;;;11.81;28.80;100801.12;4398799;32;20013;-79
2022/04/17 00:32:04;;;;;;;;;;;;;;;11.47;28.52;100807.09;4411719;32;19978;-78
2022/04/17 00:34:30;;;;;;;;;;;;;;;11.06;28.76;100802.47;4400113;32;19993;-79
2022/04/17 00:37:00;;;;;;;;;;;;;;;10.86;29.66;100798.44;4399762;32;20835;-79
2022/04/17 00:39:28;;;;;;;;;;;;;;;10.97;29.16;100797.03;4399081;32;20019;-79
2022/04/17 00:41:56;;;;;;;;;;;;;;;11.16;29.79;100788.97;4361296;32;19991;-79
2022/04/17 00:44:22;;;;;;;;;;;;;;;11.34;29.61;100788.63;4392613;32;20234;-79
2022/04/17 00:46:50;;;;;;;;;;;;;;;11.15;28.94;100797.56;4385519;32;20006;-79
2022/04/17 00:49:16;;;;;;;;;;;;;;;11.27;29.08;100801.38;4384223;32;20033;-79
2022/04/17 00:51:43;;;;;;;;;;;;;;;11.11;28.93;100790.56;4384687;32;20375;-79
2022/04/17 00:54:12;;;;;;;;;;;;;;;10.79;28.08;100786.13;4385153;32;20261;-79
2022/04/17 00:56:38;;;;;;;;;;;;;;;10.75;29.08;100779.09;4397336;32;20912;-79
2022/04/17 00:59:05;;;;;;;;;;;;;;;10.85;28.83;100781.16;4393054;32;19986;-78
2022/04/17 01:01:33;;;;;;;;;;;;;;;10.80;29.16;100780.13;4385068;32;20328;-79
2022/04/17 01:04:00;;;;;;;;;;;;;;;10.64;29.34;100782.22;4384640;32;20379;-78
2022/04/17 01:06:27;;;;;;;;;;;;;;;10.97;28.70;100781.47;4383573;32;20790;-78
2022/04/17 01:08:54;;;;;;;;;;;;;;;10.43;28.93;100786.72;4384812;32;19986;-78
2022/04/17 01:11:20;;;;;;;;;;;;;;;10.59;29.01;100789.00;4384846;32;20046;-79
2022/04/17 01:13:47;;;;;;;;;;;;;;;10.48;28.87;100780.00;4384561;32;19979;-79
2022/04/17 01:16:17;;;;;;;;;;;;;;;10.65;29.43;100771.03;4395322;32;19986;-79
2022/04/17 01:18:57;;;;;;;;;;;;;;;10.86;29.28;100778.59;4372144;32;20355;-79
2022/04/17 01:21:24;;;;;;;;;;;;;;;10.93;29.86;100774.47;4170946;32;19979;-79
2022/04/17 01:29:26;;;;;;;;;;;;;;;11.06;29.18;100776.56;4392520;32;20040;-79
2022/04/17 01:31:53;;;;;;;;;;;;;;;11.11;29.13;100768.97;4399683;32;20045;-79
2022/04/17 01:34:21;;;;;;;;;;;;;;;11.06;28.77;100771.41;4384461;32;19989;-79
2022/04/17 01:36:49;;;;;;;;;;;;;;;11.20;28.77;100768.31;4396090;32;19994;-79
2022/04/17 01:39:18;;;;;;;;;;;;;;;11.36;28.86;100771.41;4394676;32;19993;-79
2022/04/17 01:41:48;;;;;;;;;;;;;;;11.34;29.13;100767.00;4392239;32;20007;-79
2022/04/17 01:44:18;;;;;;;;;;;;;;;11.31;28.80;100766.91;4384645;32;20057;-79
2022/04/17 01:46:45;;;;;;;;;;;;;;;11.27;28.92;100754.72;4384349;32;19975;-79
2022/04/17 01:49:13;;;;;;;;;;;;;;;11.34;28.50;100767.00;4398478;32;20005;-79
2022/04/17 01:51:42;;;;;;;;;;;;;;;11.21;29.06;100759.72;4399506;32;20112;-79
2022/04/17 01:54:09;;;;;;;;;;;;;;;11.33;28.16;100762.66;4397488;32;19978;-79
2022/04/17 01:56:37;;;;;;;;;;;;;;;11.39;28.53;100755.03;4406954;32;20045;-79
2022/04/17 01:59:05;;;;;;;;;;;;;;;11.38;28.98;100753.28;4404304;32;20362;-79
2022/04/17 02:01:32;;;;;;;;;;;;;;;11.57;28.38;100754.66;4388322;32;20273;-79
2022/04/17 02:04:00;;;;;;;;;;;;;;;11.28;30.13;100756.47;4393269;32;20122;-79
2022/04/17 02:06:27;;;;;;;;;;;;;;;11.31;28.39;100761.72;4402303;32;20029;-79
2022/04/17 02:08:54;;;;;;;;;;;;;;;11.38;28.43;100754.16;4400012;32;19982;-79
2022/04/17 02:11:21;;;;;;;;;;;;;;;11.38;27.46;100753.28;4408881;32;20685;-79
2022/04/17 02:13:51;;;;;;;;;;;;;;;11.29;28.12;100748.72;4401138;32;20020;-79
2022/04/17 02:16:18;;;;;;;;;;;;;;;11.38;27.53;100742.91;4401511;32;20002;-79
2022/04/17 02:18:45;;;;;;;;;;;;;;;11.37;27.81;100735.97;4412521;32;20503;-79
2022/04/17 02:21:16;;;;;;;;;;;;;;;11.25;29.94;100733.06;4400624;32;20040;-79
2022/04/17 02:23:43;;;;;;;;;;;;;;;11.23;29.32;100732.13;4396996;32;20032;-79
2022/04/17 02:26:10;;;;;;;;;;;;;;;11.47;27.56;100743.16;4401291;32;19982;-79
2022/04/17 02:28:38;;;;;;;;;;;;;;;11.21;28.12;100744.19;4396630;32;19986;-79
2022/04/17 02:31:05;;;;;;;;;;;;;;;10.98;28.13;100731.44;4385878;32;20312;-78
2022/04/17 02:33:32;;;;;;;;;;;;;;;11.42;28.59;100749.94;4386351;32;19975;-79
2022/04/17 02:35:59;;;;;;;;;;;;;;;10.94;27.41;100729.59;4386161;32;20033;-79
2022/04/17 02:38:26;;;;;;;;;;;;;;;10.83;28.19;100715.47;4385905;32;19990;-79
2022/04/17 02:40:53;;;;;;;;;;;;;;;10.71;29.71;100727.19;4384447;32;20269;-79
2022/04/17 02:43:20;;;;;;;;;;;;;;;10.46;28.10;100711.75;4386014;32;20032;-79
2022/04/17 02:45:47;;;;;;;;;;;;;;;10.34;29.39;100719.16;4386038;32;20380;-79
2022/04/17 02:48:14;;;;;;;;;;;;;;;10.57;28.16;100718.16;4397092;32;19986;-79
2022/04/17 02:50:41;;;;;;;;;;;;;;;10.94;27.54;100703.69;4385984;32;19997;-79
2022/04/17 02:53:07;;;;;;;;;;;;;;;10.55;27.69;100709.47;4376029;32;20783;-79
2022/04/17 02:55:35;;;;;;;;;;;;;;;10.41;28.03;100710.75;4384914;32;20013;-79
2022/04/17 02:58:01;;;;;;;;;;;;;;;10.57;27.65;100712.09;4397137;32;19998;-78
2022/04/17 03:00:28;;;;;;;;;;;;;;;10.11;28.29;100721.84;4385688;32;19986;-79
2022/04/17 03:05:41;;;;;;;;;;;;;;;9.76;28.72;100721.59;4395599;32;20037;-79
2022/04/17 03:08:09;;;;;;;;;;;;;;;9.98;28.33;100724.87;4384993;32;19986;-79
2022/04/17 03:10:36;;;;;;;;;;;;;;;10.12;28.58;100726.22;4385311;32;20265;-78
2022/04/17 03:13:04;;;;;;;;;;;;;;;10.20;28.23;100737.69;4385178;32;20029;-78
2022/04/17 03:15:31;;;;;;;;;;;;;;;9.90;28.74;100731.53;4384606;32;20002;-78
2022/04/17 03:17:59;;;;;;;;;;;;;;;9.66;28.74;100729.84;4385329;32;20005;-78
2022/04/17 03:20:26;;;;;;;;;;;;;;;9.55;29.06;100729.50;4386112;32;19983;-78
2022/04/17 03:22:53;;;;;;;;;;;;;;;10.03;29.32;100738.84;4378074;32;19971;-78
2022/04/17 03:25:20;;;;;;;;;;;;;;;9.97;28.56;100738.66;4395531;32;20037;-79
2022/04/17 03:27:47;;;;;;;;;;;;;;;10.12;28.70;100733.09;4397166;32;20008;-79
2022/04/17 03:30:15;;;;;;;;;;;;;;;10.12;28.42;100743.47;4385304;32;20001;-79
2022/04/17 03:32:42;;;;;;;;;;;;;;;10.14;28.67;100742.66;4386070;32;20021;-78
2022/04/17 03:35:09;;;;;;;;;;;;;;;10.29;27.91;100746.59;4385982;32;19983;-79
2022/04/17 03:37:38;;;;;;;;;;;;;;;10.07;28.18;100743.28;4384782;32;20004;-78
2022/04/17 03:40:05;;;;;;;;;;;;;;;10.09;28.22;100752.00;4382797;32;20040;-77
2022/04/17 03:42:32;;;;;;;;;;;;;;;10.25;27.92;100756.81;4386287;32;19975;-79
2022/04/17 03:44:59;;;;;;;;;;;;;;;10.05;28.21;100757.91;4387470;32;20624;-78
2022/04/17 03:47:26;;;;;;;;;;;;;;;10.10;28.12;100748.56;4387625;32;20437;-79
2022/04/17 03:49:53;;;;;;;;;;;;;;;9.61;28.24;100753.81;4388016;32;19983;-78
2022/04/17 03:52:20;;;;;;;;;;;;;;;9.39;28.78;100755.63;4387453;32;19993;-78
2022/04/17 03:54:47;;;;;;;;;;;;;;;9.36;29.24;100757.25;4392767;32;19990;-78
2022/04/17 03:57:14;;;;;;;;;;;;;;;9.52;28.87;100755.25;4385756;32;20008;-79
2022/04/17 03:59:41;;;;;;;;;;;;;;;9.54;29.01;100763.06;4385834;32;20324;-78
2022/04/17 04:02:07;;;;;;;;;;;;;;;9.40;28.80;100764.25;4385736;32;19978;-78
2022/04/17 04:04:36;;;;;;;;;;;;;;;9.31;28.90;100760.50;4385316;32;19986;-78
2022/04/17 04:07:03;;;;;;;;;;;;;;;9.59;28.91;100766.66;4386060;32;20013;-78
2022/04/17 04:09:30;;;;;;;;;;;;;;;9.80;28.95;100771.72;4389912;32;20742;-78
2022/04/17 04:11:57;;;;;;;;;;;;;;;9.94;28.61;100770.47;4385066;32;19975;-78
2022/04/17 04:14:23;;;;;;;;;;;;;;;9.90;28.49;100768.59;4231292;32;5001164;-79
2022/04/17 04:16:50;;;;;;;;;;;;;;;9.49;29.18;100774.94;4383805;32;20001;-79
2022/04/17 04:19:18;;;;;;;;;;;;;;;9.53;29.09;100776.78;4384830;32;20010;-79
2022/04/17 04:21:47;;;;;;;;;;;;;;;9.93;28.83;100767.84;4384957;32;20458;-79
2022/04/17 04:24:15;;;;;;;;;;;;;;;10.17;28.57;100768.63;4384754;32;20846;-79
2022/04/17 04:26:42;;;;;;;;;;;;;;;10.13;28.50;100769.34;4385926;32;20005;-78
2022/04/17 04:29:09;;;;;;;;;;;;;;;10.26;28.06;100773.25;4082762;32;10004445;-78
2022/04/17 04:31:36;;;;;;;;;;;;;;;10.31;28.26;100776.88;4384678;32;20347;-78
2022/04/17 04:34:04;;;;;;;;;;;;;;;10.41;29.01;100772.87;4385681;32;19963;-78
2022/04/17 04:36:30;;;;;;;;;;;;;;;10.27;28.46;100779.31;4385695;32;20015;-79
2022/04/17 04:38:58;;;;;;;;;;;;;;;10.32;29.17;100786.41;4384688;32;20036;-78
2022/04/17 04:41:25;;;;;;;;;;;;;;;10.59;28.71;100782.91;4385866;32;19982;-79
2022/04/17 04:43:52;;;;;;;;;;;;;;;10.65;28.22;100772.75;4396560;32;19974;-79
2022/04/17 04:46:19;;;;;;;;;;;;;;;10.78;28.17;100779.19;4383872;32;20045;-78
2022/04/17 04:51:32;;;;;;;;;;;;;;;11.20;28.01;100776.09;4384136;32;19986;-78
2022/04/17 04:53:59;;;;;;;;;;;;;;;11.33;28.55;100778.22;4090993;32;10001086;-78
2022/04/17 04:56:26;;;;;;;;;;;;;;;11.47;27.92;100776.88;4397183;32;19978;-78
2022/04/17 04:58:52;;;;;;;;;;;;;;;11.34;26.85;100777.38;4384677;32;20040;-80
2022/04/17 05:01:19;;;;;;;;;;;;;;;11.36;27.85;100778.31;4384199;32;20277;-80
2022/04/17 05:03:46;;;;;;;;;;;;;;;11.57;26.97;100776.28;4392779;32;20066;-79
2022/04/17 05:06:13;;;;;;;;;;;;;;;10.99;27.67;100784.12;4384283;32;20316;-79
2022/04/17 05:08:40;;;;;;;;;;;;;;;11.26;27.98;100773.66;4384470;32;19975;-79
2022/04/17 05:11:07;;;;;;;;;;;;;;;11.35;27.43;100773.94;4384141;32;20324;-80
2022/04/17 05:13:34;;;;;;;;;;;;;;;11.55;26.39;100772.78;4384960;32;20399;-80
2022/04/17 05:16:20;;;;;;;;;;;;;;;11.43;26.34;100772.44;4384829;32;20410;-80
2022/04/17 05:18:52;;;;;;;;;;;;;;;10.86;27.01;100780.31;4385271;32;19987;-79
2022/04/17 05:21:20;;;;;;;;;;;;;;;10.87;27.51;100774.28;4394227;32;20034;-80
2022/04/17 05:23:46;;;;;;;;;;;;;;;10.94;27.14;100771.03;4384526;32;20033;-80
2022/04/17 05:26:13;;;;;;;;;;;;;;;10.88;27.68;100773.44;4389541;32;19974;-79
2022/04/17 05:28:40;;;;;;;;;;;;;;;10.55;27.36;100776.75;4396018;32;20037;-80
2022/04/17 05:31:07;;;;;;;;;;;;;;;10.92;27.29;100783.06;4384401;32;20333;-80
2022/04/17 05:33:34;;;;;;;;;;;;;;;10.86;27.22;100782.87;4384174;32;19982;-80
2022/04/17 05:36:01;;;;;;;;;;;;;;;10.55;27.26;100787.13;4362060;32;19975;-80
2022/04/17 05:38:27;;;;;;;;;;;;;;;11.04;27.48;100777.34;4376533;32;19979;-80
2022/04/17 05:40:54;;;;;;;;;;;;;;;11.07;27.59;100777.44;4385191;32;19986;-80
2022/04/17 05:43:21;;;;;;;;;;;;;;;11.03;26.53;100781.66;4397052;32;20005;-80
2022/04/17 05:45:50;;;;;;;;;;;;;;;10.04;28.09;100781.97;4384697;32;20020;-79
2022/04/17 05:48:18;;;;;;;;;;;;;;;10.48;28.01;100785.19;4388953;32;20006;-78
2022/04/17 05:50:44;;;;;;;;;;;;;;;10.17;28.24;100783.28;4385981;32;19986;-79
2022/04/17 05:53:11;;;;;;;;;;;;;;;10.63;28.52;100780.47;4386486;32;20427;-79
2022/04/17 05:55:39;;;;;;;;;;;;;;;10.81;27.39;100779.28;4385928;32;19982;-80
2022/04/17 05:58:06;;;;;;;;;;;;;;;10.64;27.64;100779.66;4386109;32;20419;-79
2022/04/17 06:00:33;;;;;;;;;;;;;;;10.79;27.61;100779.25;4385646;32;20343;-79
2022/04/17 06:03:01;;;;;;;;;;;;;;;10.79;27.71;100773.19;4385142;32;20002;-83
2022/04/17 06:05:28;;;;;;;;;;;;;;;10.93;28.57;100774.47;4385829;32;20394;-82
2022/04/17 06:07:54;;;;;;;;;;;;;;;11.03;28.60;100775.63;4381613;32;19998;-82
2022/04/17 06:10:21;;;;;;;;;;;;;;;11.09;27.93;100776.66;4383901;32;20386;-82
2022/04/17 06:12:48;;;;;;;;;;;;;;;11.13;28.29;100773.31;4379381;32;19991;-81
2022/04/17 06:15:15;;;;;;;;;;;;;;;10.82;27.63;100775.87;4390239;32;19982;-82
2022/04/17 06:17:42;;;;;;;;;;;;;;;10.67;28.22;100782.31;4373902;32;20013;-83
2022/04/17 06:20:10;;;;;;;;;;;;;;;11.00;28.08;100786.75;4383534;32;19970;-80
2022/04/17 06:22:37;;;;;;;;;;;;;;;10.97;29.19;100780.59;4387939;32;20053;-81
2022/04/17 06:25:05;;;;;;;;;;;;;;;11.30;28.32;100791.97;4397883;32;19986;-83
2022/04/17 06:27:36;;;;;;;;;;;;;;;11.29;27.29;100779.81;4375913;32;20080;-82
2022/04/17 06:30:09;;;;;;;;;;;;;;;11.47;28.59;100779.47;4383325;32;20040;-81
2022/04/17 06:32:37;;;;;;;;;;;;;;;11.85;26.84;100777.06;4365067;32;19989;-82
2022/04/17 06:35:04;;;;;;;;;;;;;;;11.75;26.98;100775.91;4383703;32;20744;-82
2022/04/17 06:37:30;;;;;;;;;;;;;;;12.31;26.23;100785.97;4386835;32;20556;-79
2022/04/17 06:39:57;;;;;;;;;;;;;;;12.44;26.33;100785.44;4383948;32;19994;-81
2022/04/17 06:42:25;;;;;;;;;;;;;;;12.75;25.63;100776.63;4406118;32;20687;-81
2022/04/17 06:44:51;;;;;;;;;;;;;;;12.62;25.76;100779.78;4400500;32;20080;-83
2022/04/17 06:47:19;;;;;;;;;;;;;;;13.31;25.57;100773.50;4406267;32;20013;-80
2022/04/17 06:49:46;;;;;;;;;;;;;;;13.33;24.58;100770.94;4396699;32;20084;-83
2022/04/17 06:52:13;;;;;;;;;;;;;;;13.81;25.01;100776.16;4398665;32;19982;-85
2022/04/17 06:54:39;;;;;;;;;;;;;;;13.94;25.56;100770.34;4394367;32;20008;-87
2022/04/17 06:57:06;;;;;;;;;;;;;;;14.41;24.41;100782.37;4397593;32;20036;-82
2022/04/17 06:59:33;;;;;;;;;;;;;;;14.71;23.99;100779.41;4386531;32;19993;-82
2022/04/17 07:02:00;;;;;;;;;;;;;;;14.34;23.27;100778.81;4390151;32;19990;-81
2022/04/17 07:04:27;;;;;;;;;;;;;;;14.48;23.89;100780.75;4394146;32;20792;-83
2022/04/17 07:06:54;;;;;;;;;;;;;;;15.08;23.16;100779.91;4396883;32;19983;-83
2022/04/17 07:09:21;;;;;;;;;;;;;;;15.41;23.05;100779.44;4399032;32;20043;-81
2022/04/17 07:11:48;;;;;;;;;;;;;;;15.56;22.71;100778.72;4399524;32;20040;-82
2022/04/17 07:14:16;;;;;;;;;;;;;;;15.88;21.74;100765.16;4398679;32;19986;-82
2022/04/17 07:16:43;;;;;;;;;;;;;;;16.26;21.73;100766.34;4399505;32;19990;-81
2022/04/17 07:19:10;;;;;;;;;;;;;;;16.25;21.71;100776.81;4398710;32;20067;-80
2022/04/17 07:21:37;;;;;;;;;;;;;;;16.44;21.42;100768.22;4401308;32;20001;-79
2022/04/17 07:24:05;;;;;;;;;;;;;;;16.88;20.93;100774.62;4397449;32;20835;-81
2022/04/17 07:26:32;;;;;;;;;;;;;;;17.00;20.38;100772.06;4394723;32;19990;-81
2022/04/17 07:28:59;;;;;;;;;;;;;;;17.20;20.20;100759.97;4398787;32;20012;-80
2022/04/17 07:31:26;;;;;;;;;;;;;;;17.25;20.53;100770.44;4408761;32;20040;-81
2022/04/17 07:33:53;;;;;;;;;;;;;;;17.12;21.71;100769.50;4396332;32;19993;-81
2022/04/17 07:36:21;;;;;;;;;;;;;;;17.42;19.56;100762.63;4392554;32;19986;-80
2022/04/17 07:38:48;;;;;;;;;;;;;;;17.36;20.67;100762.63;4395793;32;20008;-81
2022/04/17 07:41:14;;;;;;;;;;;;;;;17.22;21.70;100767.81;4399746;32;19978;-80
2022/04/17 07:43:41;;;;;;;;;;;;;;;17.58;20.51;100769.69;4399612;32;20430;-80
2022/04/17 07:46:08;;;;;;;;;;;;;;;17.99;19.15;100761.00;4400251;32;20014;-81
2022/04/17 07:48:35;;;;;;;;;;;;;;;18.02;19.52;100760.16;4398919;32;20000;-80
2022/04/17 07:51:01;;;;;;;;;;;;;;;17.85;19.12;100762.75;4400104;32;19974;-79
2022/04/17 07:53:28;;;;;;;;;;;;;;;17.70;20.42;100760.09;4385172;32;20001;-79
2022/04/17 07:55:56;;;;;;;;;;;;;;;17.72;19.07;100755.72;4383497;32;19997;-80
2022/04/17 07:58:30;;;;;;;;;;;;;;;17.32;19.72;100753.00;4376572;32;20029;-79
2022/04/17 08:00:57;;;;;;;;;;;;;;;17.32;19.26;100755.63;4385746;32;20359;-81
2022/04/17 08:06:01;;;;;;;;;;;;;;;17.10;19.35;100755.56;4384955;32;20321;-81
2022/04/17 08:08:28;;;;;;;;;;;;;;;17.56;19.03;100755.69;4365966;32;19990;-80
2022/04/17 08:10:55;;;;;;;;;;;;;;;17.25;19.48;100748.63;4384747;32;20595;-81
2022/04/17 08:13:22;;;;;;;;;;;;;;;17.34;19.78;100748.66;4385798;32;19990;-82
2022/04/17 08:15:50;;;;;;;;;;;;;;;17.41;19.83;100745.19;4385000;32;19982;-81
2022/04/17 08:18:18;;;;;;;;;;;;;;;17.93;19.31;100744.41;4385121;32;20006;-81
2022/04/17 08:20:44;;;;;;;;;;;;;;;17.95;19.72;100742.69;4396081;32;20311;-82
2022/04/17 08:23:12;;;;;;;;;;;;;;;18.12;20.49;100741.81;4390368;32;20504;-82
2022/04/17 08:25:38;;;;;;;;;;;;;;;18.31;19.67;100736.53;4384084;32;20034;-82
2022/04/17 08:28:05;;;;;;;;;;;;;;;18.48;20.35;100739.16;4385495;32;20024;-82
2022/04/17 08:30:33;;;;;;;;;;;;;;;17.83;19.11;100728.69;4384561;32;20010;-82
2022/04/17 08:33:00;;;;;;;;;;;;;;;18.31;18.37;100726.06;4385122;32;20033;-82
2022/04/17 08:35:27;;;;;;;;;;;;;;;18.07;20.03;100733.09;4396281;32;20054;-82
2022/04/17 08:38:00;;;;;;;;;;;;;;;17.66;18.97;100725.16;4395179;32;20797;-82
2022/04/17 08:40:27;;;;;;;;;;;;;;;18.09;18.62;100726.09;4385194;32;19991;-83
2022/04/17 08:42:54;;;;;;;;;;;;;;;18.25;20.01;100720.81;4384259;32;19994;-83
2022/04/17 08:45:21;;;;;;;;;;;;;;;18.51;20.79;100729.53;4384680;32;19994;-82
2022/04/17 08:47:48;;;;;;;;;;;;;;;18.79;17.87;100721.59;4385427;32;19986;-82
2022/04/17 08:50:15;;;;;;;;;;;;;;;18.42;18.55;100713.81;4394543;32;20035;-83
2022/04/17 08:52:47;;;;;;;;;;;;;;;18.23;21.97;100706.88;4398561;32;19982;-83
2022/04/17 08:55:15;;;;;;;;;;;;;;;18.62;18.75;100705.91;4391097;32;20013;-83
2022/04/17 08:57:42;;;;;;;;;;;;;;;18.64;19.83;100703.28;4384504;32;20033;-82
2022/04/17 09:00:10;;;;;;;;;;;;;;;18.52;18.27;100710.31;4384958;32;19991;-82
2022/04/17 09:02:40;;;;;;;;;;;;;;;18.07;20.04;100704.25;4384736;32;19978;-82
2022/04/17 09:05:08;;;;;;;;;;;;;;;18.15;18.57;100703.38;4384821;32;19987;-82
2022/04/17 09:07:39;;;;;;;;;;;;;;;17.72;19.36;100692.88;4385871;32;20327;-82
2022/04/17 09:10:06;;;;;;;;;;;;;;;17.82;20.45;100689.44;4384519;32;20031;-82
2022/04/17 09:12:33;;;;;;;;;;;;;;;17.76;21.04;100689.38;4384882;32;19989;-81
2022/04/17 09:15:00;;;;;;;;;;;;;;;17.88;20.72;100690.28;4384008;32;19991;-82
2022/04/17 09:17:34;;;;;;;;;;;;;;;18.34;19.84;100676.25;4383207;32;19986;-82
2022/04/17 09:20:01;;;;;;;;;;;;;;;18.28;19.38;100684.13;4384715;32;19978;-82
2022/04/17 09:22:47;;;;;;;;;;;;;;;18.20;20.25;100678.03;4384429;32;20237;-82
2022/04/17 09:25:16;;;;;;;;;;;;;;;18.47;20.25;100677.97;4384816;32;19982;-82
2022/04/17 09:27:54;;;;;;;;;;;;;;;18.43;19.83;100673.63;4384680;32;20005;-82
2022/04/17 09:30:26;;;;;;;;;;;;;;;18.43;20.11;100673.63;4385142;32;20009;-82
2022/04/17 09:32:54;;;;;;;;;;;;;;;17.75;20.11;100661.47;4384697;32;19982;-81
2022/04/17 09:35:24;;;;;;;;;;;;;;;17.72;19.15;100656.22;4384046;32;19991;-81
2022/04/17 09:37:55;;;;;;;;;;;;;;;17.89;19.93;100649.25;4384173;32;20336;-81
2022/04/17 09:40:23;;;;;;;;;;;;;;;18.22;19.84;100647.44;4384290;32;20039;-81
2022/04/17 09:42:49;;;;;;;;;;;;;;;17.79;20.10;100644.91;4388576;32;19986;-81
2022/04/17 09:45:17;;;;;;;;;;;;;;;18.21;20.00;100635.22;4389884;32;19986;-82
2022/04/17 09:47:54;;;;;;;;;;;;;;;18.07;19.57;100649.25;4408129;32;19982;-81
2022/04/17 09:50:32;;;;;;;;;;;;;;;18.62;19.66;100648.22;4384566;32;19982;-82
2022/04/17 09:52:59;;;;;;;;;;;;;;;18.80;20.25;100642.06;4380583;32;20031;-82
2022/04/17 09:55:27;;;;;;;;;;;;;;;18.56;20.87;100637.75;4389801;32;19982;-82
2022/04/17 09:57:57;;;;;;;;;;;;;;;18.78;20.15;100633.31;4384522;32;19986;-82
2022/04/17 10:00:25;;;;;;;;;;;;;;;18.84;18.95;100628.03;4382527;32;19983;-84
2022/04/17 10:02:52;;;;;;;;;;;;;;;18.84;19.55;100622.78;4382864;32;20259;-82
2022/04/17 10:05:19;;;;;;;;;;;;;;;19.00;18.45;100619.19;4386147;32;19990;-82
2022/04/17 10:07:49;;;;;;;;;;;;;;;18.49;17.91;100620.28;4377384;32;20044;-82
2022/04/17 10:10:16;;;;;;;;;;;;;;;18.50;19.68;100622.91;4388908;32;19978;-82
2022/04/17 10:12:46;;;;;;;;;;;;;;;18.89;19.16;100615.78;4380615;32;20002;-82
2022/04/17 10:15:13;;;;;;;;;;;;;;;18.43;19.00;100621.19;4385192;32;19983;-82
2022/04/17 10:17:44;;;;;;;;;;;;;;;17.92;19.56;100620.44;4369188;32;19987;-83
2022/04/17 10:20:12;;;;;;;;;;;;;;;18.31;19.42;100616.87;4402905;32;20000;-82
2022/04/17 10:22:43;;;;;;;;;;;;;;;18.60;19.63;100608.00;4400249;32;19992;-83
2022/04/17 10:25:10;;;;;;;;;;;;;;;18.65;20.38;100605.38;4401000;32;19983;-83
2022/04/17 10:27:47;;;;;;;;;;;;;;;18.51;18.43;100614.19;4400900;32;19982;-82
2022/04/17 10:30:15;;;;;;;;;;;;;;;18.41;18.28;100595.84;4412187;32;19996;-83
2022/04/17 10:32:51;;;;;;;;;;;;;;;18.28;20.18;100584.53;4402465;32;19998;-82
2022/04/17 10:35:37;;;;;;;;;;;;;;;18.49;19.64;100568.72;4379934;32;19995;-82
2022/04/17 10:38:23;;;;;;;;;;;;;;;18.37;19.35;100579.25;4385355;32;20351;-82
2022/04/17 10:41:07;;;;;;;;;;;;;;;18.50;18.36;100567.84;4380350;32;19982;-82
2022/04/17 10:43:47;;;;;;;;;;;;;;;18.44;19.73;100586.25;4407547;32;19978;-83
2022/04/17 10:46:15;;;;;;;;;;;;;;;18.08;19.27;100572.37;4409139;32;20038;-82
2022/04/17 10:48:43;;;;;;;;;;;;;;;18.45;18.07;100564.38;4394109;32;19990;-82
2022/04/17 10:51:14;;;;;;;;;;;;;;;18.52;19.27;100568.72;4401574;32;20249;-82
2022/04/17 10:53:51;;;;;;;;;;;;;;;18.04;17.71;100570.66;4401142;32;19974;-82
2022/04/17 10:56:18;;;;;;;;;;;;;;;18.57;17.61;100561.72;4391529;32;20702;-82
2022/04/17 10:58:55;;;;;;;;;;;;;;;18.37;17.65;100558.28;4386276;32;19975;-81
2022/04/17 11:01:41;;;;;;;;;;;;;;;18.44;18.04;100554.78;4397614;32;20032;-81
2022/04/17 11:04:34;;;;;;;;;;;;;;;17.74;18.55;100554.94;4385709;32;20021;-81
2022/04/17 11:07:04;;;;;;;;;;;;;;;17.76;17.84;100555.84;4367545;32;19994;-81
2022/04/17 11:09:31;;;;;;;;;;;;;;;17.66;17.24;100553.22;4385813;32;19992;-81
2022/04/17 11:12:10;;;;;;;;;;;;;;;17.45;16.95;100558.47;4385437;32;20761;-82
2022/04/17 11:14:39;;;;;;;;;;;;;;;17.48;17.34;100537.53;4374531;32;19989;-82
2022/04/17 11:17:11;;;;;;;;;;;;;;;17.61;17.37;100536.66;4385405;32;19982;-82
2022/04/17 11:19:38;;;;;;;;;;;;;;;17.90;17.75;100541.00;4396846;32;19997;-81
2022/04/17 11:22:06;;;;;;;;;;;;;;;17.95;17.60;100534.00;4385555;32;20271;-81
2022/04/17 11:24:56;;;;;;;;;;;;;;;17.88;24.72;100521.78;4385152;32;20029;-81
2022/04/17 11:27:42;;;;;;;;;;;;;;;18.26;17.86;100520.78;4386144;32;20229;-82
2022/04/17 11:30:31;;;;;;;;;;;;;;;18.48;17.38;100530.28;4386232;32;19997;-82
2022/04/17 11:32:58;;;;;;;;;;;;;;;18.06;17.71;100521.75;4385041;32;20472;-85
2022/04/17 11:35:25;;;;;;;;;;;;;;;17.93;17.81;100527.88;4381551;32;20354;-85
2022/04/17 11:37:55;;;;;;;;;;;;;;;17.40;17.86;100514.00;4385695;32;19978;-83
2022/04/17 11:40:23;;;;;;;;;;;;;;;17.96;20.04;100509.53;4386196;32;20378;-79
2022/04/17 11:42:51;;;;;;;;;;;;;;;18.10;18.50;100509.50;4369401;32;20033;-82
2022/04/17 11:45:25;;;;;;;;;;;;;;;17.82;19.98;100506.09;4368600;32;19998;-85
2022/04/17 11:47:53;;;;;;;;;;;;;;;18.47;18.97;100512.78;4370904;32;19970;-81
2022/04/17 11:50:27;;;;;;;;;;;;;;;18.24;18.74;100504.19;4369780;32;19975;-83
2022/04/17 11:52:56;;;;;;;;;;;;;;;17.81;18.23;100504.38;4371317;32;20040;-82
2022/04/17 11:55:24;;;;;;;;;;;;;;;17.70;18.77;100508.72;4370498;32;20017;-84
2022/04/17 11:57:51;;;;;;;;;;;;;;;17.95;18.70;100504.31;4371235;32;20018;-82
2022/04/17 12:00:17;;;;;;;;;;;;;;;17.12;18.76;100523.59;4371016;32;19979;-81
2022/04/17 12:02:44;;;;;;;;;;;;;;;17.32;18.53;100514.87;4095459;32;10004126;-81
2022/04/17 12:05:13;;;;;;;;;;;;;;;17.69;18.92;100493.88;4333260;32;20026;-82
2022/04/17 12:07:43;;;;;;;;;;;;;;;18.09;19.35;100503.41;4395490;32;20046;-80
2022/04/17 12:10:11;;;;;;;;;;;;;;;18.19;17.22;100484.97;4386263;32;20362;-82
2022/04/17 12:12:38;;;;;;;;;;;;;;;17.83;17.35;100492.13;4386036;32;20798;-83
2022/04/17 12:15:05;;;;;;;;;;;;;;;17.25;17.52;100492.19;4386159;32;19999;-81
2022/04/17 12:17:33;;;;;;;;;;;;;;;17.85;17.91;100485.13;4385844;32;19971;-82
2022/04/17 12:20:00;;;;;;;;;;;;;;;18.27;17.63;100478.84;4386124;32;20503;-83
2022/04/17 12:22:32;;;;;;;;;;;;;;;18.41;18.11;100476.16;4385879;32;19993;-82
2022/04/17 12:24:58;;;;;;;;;;;;;;;18.52;18.83;100483.94;4385782;32;20554;-83
2022/04/17 12:27:26;;;;;;;;;;;;;;;18.32;17.68;100476.22;4384291;32;20017;-80
2022/04/17 12:29:53;;;;;;;;;;;;;;;18.17;17.95;100471.03;4385659;32;19982;-78
2022/04/17 12:32:21;;;;;;;;;;;;;;;17.88;18.17;100472.03;4379415;32;20343;-79
2022/04/17 12:34:57;;;;;;;;;;;;;;;17.93;18.17;100472.88;4386290;32;19970;-82
2022/04/17 12:37:25;;;;;;;;;;;;;;;17.78;18.21;100473.81;4385940;32;19967;-78
2022/04/17 12:39:52;;;;;;;;;;;;;;;17.61;19.13;100470.31;4385207;32;19991;-85
2022/04/17 12:42:18;;;;;;;;;;;;;;;17.61;19.33;100465.09;4386113;32;20362;-84
2022/04/17 12:44:47;;;;;;;;;;;;;;;17.79;19.36;100451.09;4383075;32;20267;-83
2022/04/17 12:47:14;;;;;;;;;;;;;;;17.38;18.27;100446.81;4385239;32;20014;-79
2022/04/17 12:49:41;;;;;;;;;;;;;;;17.52;17.89;100450.28;4073932;32;10004781;-82
2022/04/17 12:52:08;;;;;;;;;;;;;;;17.18;18.08;100450.34;4364307;32;20432;-84
2022/04/17 12:54:35;;;;;;;;;;;;;;;16.70;18.22;100454.66;4362484;32;19971;-82
2022/04/17 12:57:03;;;;;;;;;;;;;;;17.19;18.48;100452.06;4354181;32;20610;-81